Página principal
METAR-TAF:

METAR-TAF

Aeroportos :

Magnitogorsk, Rússia

latitude: 53-23-36N, longitude: 058-45-24E, altura: 436 m

Observação actual do tempo

O boletim foi feito há 28 minutos, às 22:00 UTC
Vento 10 kt de oes-noroeste
Temperatura 1°C
Humidade 47%
Pressão 1033 hPa
Visibilidade 10 km ou mais
Nuvens fragmentadasa uma altura de 4000 ft

METAR: USCM 152200Z 30005MPS 9999 BKN040 01/M09 Q1033 R18/720257 TEMPO 25014MPS RMK QFE736

Hora: 03:28 (22:28 UTC)

Previsão

O boletim foi feito há 2 horas e 28 minutos, às 20:00 UTC
Previsão válida de 15 às 21 UTC a 16 às 06 UTC
Vento 10 kt de oes-sudoeste com rajadas de 23 kt
Visibilidade: 6000 m
Nuvens fragmentadasa uma altura de 2000 ft
Temporariamente
de 15 às 21 UTC a 16 às 06 UTC
Vento 14 kt de oeste com rajadas de 29 kt
Visibilidade: 3100 m
neve fraca, chuva, neblina

TAF: USCM 152000Z 1521/1606 24005G12MPS 6000 BKN020 TEMPO 1521/1606 27007G15MPS 3100 -SNRA BR

Observações e previsões do tempo de mais de 4000 aeroportos (mensagens METAR e TAF).

As estações disponíveis são os pontos amarelos e vermelhos sobre o mapa.

Mova o rato sobre o mapa para ver o nome da estação.

Depois clique no ponto para visualizar as observações e previsões meteorológicas.

Para alterar o mapa : clique nos botões verdes com uma cruz preta para aumentar o zoom; no botão verde com uma pitada de zoom; ou nas setas verdes para mapas adjacentes.


METAR-TAF: